createdAt,value
2018-03-03T00:01:06.627Z,33.07
2018-03-03T00:03:36.543Z,33.10
2018-03-03T00:06:06.412Z,33.00
2018-03-03T00:08:36.326Z,31.67
2018-03-03T00:11:06.301Z,30.87
2018-03-03T00:13:36.164Z,35.20
2018-03-03T00:16:06.069Z,33.20
2018-03-03T00:18:35.949Z,31.27
2018-03-03T00:21:05.840Z,32.40
2018-03-03T00:23:35.814Z,32.23
2018-03-03T00:26:05.706Z,32.37
2018-03-03T00:28:35.576Z,28.47
2018-03-03T00:31:05.503Z,29.57
2018-03-03T00:33:35.370Z,32.37
2018-03-03T00:36:05.246Z,31.47
2018-03-03T00:38:35.132Z,32.67
2018-03-03T00:41:04.990Z,32.47
2018-03-03T00:43:34.904Z,32.20
2018-03-03T00:46:04.773Z,29.90
2018-03-03T00:48:34.664Z,33.30
2018-03-03T00:51:04.528Z,33.00
2018-03-03T00:53:34.422Z,29.27
2018-03-03T00:56:04.296Z,29.87
2018-03-03T00:58:34.148Z,29.47
2018-03-03T01:01:04.049Z,27.40
2018-03-03T01:03:33.904Z,28.87
2018-03-03T01:06:03.789Z,30.37
2018-03-03T01:08:33.641Z,31.93
2018-03-03T01:11:03.519Z,32.90
2018-03-03T01:13:33.404Z,31.23
2018-03-03T01:16:03.272Z,30.23
2018-03-03T01:18:33.250Z,31.30
2018-03-03T01:21:03.139Z,31.57
2018-03-03T01:23:32.992Z,32.20
2018-03-03T01:26:02.871Z,32.37
2018-03-03T01:28:32.739Z,34.63
2018-03-03T01:31:02.631Z,32.37
2018-03-03T01:33:32.491Z,32.60
2018-03-03T01:36:02.368Z,31.03
2018-03-03T01:38:32.229Z,33.63
2018-03-03T01:41:02.128Z,31.20
2018-03-03T01:43:31.980Z,33.80
2018-03-03T01:46:01.879Z,34.87
2018-03-03T01:48:31.782Z,34.53
2018-03-03T01:51:01.647Z,33.17
2018-03-03T01:53:31.516Z,31.27
2018-03-03T01:56:01.382Z,31.47
2018-03-03T01:58:31.252Z,33.30
2018-03-03T02:01:01.153Z,29.70
2018-03-03T02:03:31.011Z,31.03
2018-03-03T02:06:00.918Z,31.50
2018-03-03T02:08:30.760Z,32.07
2018-03-03T02:11:00.651Z,31.90
2018-03-03T02:13:30.555Z,33.17
2018-03-03T02:16:00.451Z,32.00
2018-03-03T02:18:30.328Z,32.90
2018-03-03T02:21:00.204Z,31.80
2018-03-03T02:23:30.075Z,30.33
2018-03-03T02:25:59.966Z,33.37
2018-03-03T02:28:29.820Z,29.27
2018-03-03T02:30:59.724Z,33.10
2018-03-03T02:33:29.605Z,31.80
2018-03-03T02:35:59.488Z,34.47
2018-03-03T02:38:29.351Z,34.10
2018-03-03T02:40:59.274Z,35.00
2018-03-03T02:43:29.402Z,32.77
2018-03-03T02:45:59.282Z,32.03
2018-03-03T02:48:29.133Z,28.43
2018-03-03T02:50:59.041Z,30.43
2018-03-03T02:53:28.896Z,27.90
2018-03-03T02:55:58.803Z,30.40
2018-03-03T02:58:28.681Z,31.77
2018-03-03T03:00:58.543Z,30.13
2018-03-03T03:03:28.420Z,31.30
2018-03-03T03:05:58.281Z,30.03
2018-03-03T03:08:28.165Z,33.37
2018-03-03T03:10:58.036Z,30.47
2018-03-03T03:13:27.904Z,31.60
2018-03-03T03:15:57.779Z,30.93
2018-03-03T03:18:27.623Z,30.23
2018-03-03T03:20:57.504Z,31.07
2018-03-03T03:23:27.356Z,30.90
2018-03-03T03:25:57.232Z,31.90
2018-03-03T03:28:27.079Z,31.97
2018-03-03T03:30:57.261Z,33.00
2018-03-03T03:33:27.133Z,31.97
2018-03-03T03:35:56.995Z,32.67
2018-03-03T03:38:26.880Z,31.63
2018-03-03T03:40:56.731Z,34.23
2018-03-03T03:43:26.640Z,29.90
2018-03-03T03:45:56.508Z,32.73
2018-03-03T03:48:26.398Z,34.63
2018-03-03T03:50:56.277Z,31.93
2018-03-03T03:53:26.483Z,32.10
2018-03-03T03:55:56.369Z,31.73
2018-03-03T03:58:26.236Z,33.23
2018-03-03T04:00:56.128Z,35.80
2018-03-03T04:03:25.996Z,31.70
2018-03-03T04:05:55.895Z,30.73
2018-03-03T04:08:25.748Z,29.50
2018-03-03T04:10:55.631Z,31.20
2018-03-03T04:13:25.507Z,34.80
2018-03-03T04:15:55.392Z,30.77
2018-03-03T04:18:25.283Z,33.80
2018-03-03T04:20:55.153Z,31.30
2018-03-03T04:23:25.027Z,30.73
2018-03-03T04:25:54.975Z,31.37
2018-03-03T04:28:24.867Z,30.60
2018-03-03T04:30:54.734Z,35.33
2018-03-03T04:33:24.620Z,32.40
2018-03-03T04:35:54.495Z,31.60
2018-03-03T04:38:24.481Z,30.10
2018-03-03T04:40:54.335Z,32.57
2018-03-03T04:43:24.214Z,33.93
2018-03-03T04:45:54.084Z,34.13
2018-03-03T04:48:24.294Z,33.27
2018-03-03T04:50:54.156Z,34.60
2018-03-03T04:53:24.040Z,32.67
2018-03-03T04:55:53.955Z,31.50
2018-03-03T04:58:29.482Z,41.07
2018-03-03T05:00:59.940Z,33.13
2018-03-03T05:03:44.699Z,40.30
2018-03-03T05:06:20.481Z,33.37
2018-03-03T05:08:50.330Z,34.37
2018-03-03T05:11:20.212Z,34.60
2018-03-03T05:13:55.116Z,35.40
2018-03-03T05:16:39.879Z,34.33
2018-03-03T05:19:25.486Z,36.27
2018-03-03T05:21:58.266Z,34.83
2018-03-03T05:24:43.009Z,35.37
2018-03-03T05:27:18.789Z,35.83
2018-03-03T05:30:07.508Z,36.47
2018-03-03T05:32:57.246Z,34.63
2018-03-03T05:35:32.960Z,36.77
2018-03-03T05:38:08.585Z,33.10
2018-03-03T05:40:44.279Z,38.60
2018-03-03T05:43:19.850Z,33.90
2018-03-03T05:46:10.472Z,34.97
2018-03-03T05:48:46.179Z,33.70
2018-03-03T05:51:21.924Z,35.93
2018-03-03T05:53:53.844Z,34.20
2018-03-03T05:56:38.404Z,34.77
2018-03-03T05:59:27.911Z,33.40
2018-03-03T06:02:03.556Z,34.63
2018-03-03T06:04:36.108Z,33.70
2018-03-03T06:07:09.836Z,38.97
2018-03-03T06:09:40.391Z,37.30
2018-03-03T06:12:10.320Z,37.23
2018-03-03T06:14:40.264Z,38.17
2018-03-03T06:17:10.174Z,33.60
2018-03-03T06:19:40.060Z,32.80
2018-03-03T06:22:10.372Z,38.20
2018-03-03T06:24:40.399Z,34.57
2018-03-03T06:27:10.300Z,35.17
2018-03-03T06:29:40.323Z,36.17
2018-03-03T06:32:10.205Z,34.20
2018-03-03T06:34:40.164Z,34.23
2018-03-03T06:37:10.040Z,37.20
2018-03-03T06:39:39.949Z,36.43
2018-03-03T06:42:09.842Z,39.30
2018-03-03T06:44:39.723Z,38.83
2018-03-03T06:47:09.661Z,41.93
2018-03-03T06:49:39.525Z,35.17
2018-03-03T06:52:09.400Z,37.13
2018-03-03T06:54:39.268Z,33.87
2018-03-03T06:57:09.185Z,34.00
2018-03-03T06:59:39.029Z,37.07
2018-03-03T07:02:08.932Z,38.83
2018-03-03T07:04:38.800Z,38.93
2018-03-03T07:07:08.684Z,37.63
2018-03-03T07:09:38.583Z,40.20
2018-03-03T07:12:08.432Z,40.47
2018-03-03T07:14:55.036Z,34.63
2018-03-03T07:17:24.891Z,37.77
2018-03-03T07:19:54.770Z,39.37
2018-03-03T07:22:25.098Z,39.20
2018-03-03T07:24:54.931Z,40.10
2018-03-03T07:27:24.836Z,38.97
2018-03-03T07:29:54.747Z,37.47
2018-03-03T07:32:24.619Z,36.37
2018-03-03T07:34:54.499Z,36.67
2018-03-03T07:37:24.388Z,37.17
2018-03-03T07:39:52.612Z,36.30
2018-03-03T07:42:21.741Z,39.53
2018-03-03T07:44:50.117Z,39.33
2018-03-03T07:47:18.457Z,42.23
2018-03-03T07:49:46.804Z,41.00
2018-03-03T07:52:15.173Z,39.53
2018-03-03T07:54:43.501Z,39.60
2018-03-03T07:57:13.215Z,39.83
2018-03-03T07:59:41.640Z,38.87
2018-03-03T08:02:09.996Z,40.80
2018-03-03T08:04:39.168Z,45.00
2018-03-03T08:07:07.581Z,39.53
2018-03-03T08:09:35.948Z,41.63
2018-03-03T08:12:04.301Z,40.27
2018-03-03T08:14:33.436Z,43.53
2018-03-03T08:17:01.807Z,40.07
2018-03-03T08:19:30.165Z,36.50
2018-03-03T08:21:58.548Z,40.10
2018-03-03T08:24:26.989Z,40.10
2018-03-03T08:26:56.064Z,42.77
2018-03-03T08:29:24.404Z,40.17
2018-03-03T08:31:52.764Z,41.10
2018-03-03T08:34:21.868Z,42.50
2018-03-03T08:36:50.196Z,42.20
2018-03-03T08:39:18.833Z,39.63
2018-03-03T08:41:47.228Z,45.20
2018-03-03T08:44:15.545Z,39.47
2018-03-03T08:46:44.769Z,43.73
2018-03-03T08:49:13.875Z,45.13
2018-03-03T08:51:42.212Z,44.80
2018-03-03T08:54:10.577Z,42.00
2018-03-03T08:56:38.998Z,46.27
2018-03-03T08:59:08.168Z,41.37
2018-03-03T09:01:36.520Z,43.77
2018-03-03T09:04:04.876Z,44.80
2018-03-03T09:06:33.206Z,41.77
2018-03-03T09:09:01.741Z,43.00
2018-03-03T09:11:30.068Z,43.90
2018-03-03T09:13:58.429Z,41.30
2018-03-03T09:16:26.797Z,43.27
2018-03-03T09:18:55.263Z,43.90
2018-03-03T09:21:23.601Z,44.97
2018-03-03T09:23:52.749Z,42.97
2018-03-03T09:26:21.100Z,43.73
2018-03-03T09:28:49.467Z,44.63
2018-03-03T09:31:18.593Z,41.70
2018-03-03T09:33:47.024Z,44.87
2018-03-03T09:36:16.138Z,45.30
2018-03-03T09:38:44.821Z,42.13
2018-03-03T09:41:13.149Z,43.70
2018-03-03T09:43:41.508Z,43.43
2018-03-03T09:46:09.878Z,46.37
2018-03-03T09:48:38.236Z,41.70
2018-03-03T09:51:06.597Z,42.80
2018-03-03T09:53:35.026Z,40.93
2018-03-03T09:56:03.361Z,45.23
2018-03-03T09:58:33.328Z,45.90
2018-03-03T10:01:03.234Z,46.37
2018-03-03T10:03:33.190Z,43.30
2018-03-03T10:06:03.068Z,45.13
2018-03-03T10:08:32.956Z,42.60
2018-03-03T10:11:02.810Z,44.13
2018-03-03T10:13:32.740Z,43.93
2018-03-03T10:16:02.625Z,43.00
2018-03-03T10:18:32.499Z,42.43
2018-03-03T10:21:02.380Z,42.37
2018-03-03T10:23:32.267Z,42.70
2018-03-03T10:26:02.197Z,42.60
2018-03-03T10:28:32.070Z,40.00
2018-03-03T10:31:01.925Z,38.93
2018-03-03T10:33:31.820Z,44.03
2018-03-03T10:36:01.688Z,46.40
2018-03-03T10:38:31.684Z,44.50
2018-03-03T10:41:01.532Z,44.20
2018-03-03T10:43:31.412Z,43.53
2018-03-03T10:46:01.273Z,45.80
2018-03-03T10:48:31.156Z,47.60
2018-03-03T10:51:01.036Z,42.93
2018-03-03T10:53:30.952Z,46.13
2018-03-03T10:56:00.816Z,45.23
2018-03-03T10:58:30.742Z,43.73
2018-03-03T11:01:00.603Z,49.50
2018-03-03T11:03:30.513Z,48.90
2018-03-03T11:06:01.241Z,47.53
2018-03-03T11:08:31.160Z,48.47
2018-03-03T11:11:01.024Z,47.87
2018-03-03T11:13:30.899Z,49.57
2018-03-03T11:16:00.799Z,50.07
2018-03-03T11:18:30.664Z,45.73
2018-03-03T11:21:00.576Z,46.87
2018-03-03T11:23:30.443Z,47.63
2018-03-03T11:26:00.309Z,48.00
2018-03-03T11:28:30.212Z,51.07
2018-03-03T11:31:00.061Z,45.43
2018-03-03T11:33:29.969Z,48.37
2018-03-03T11:35:59.820Z,50.90
2018-03-03T11:38:29.703Z,52.27
2018-03-03T11:41:00.226Z,50.03
2018-03-03T11:43:30.113Z,52.87
2018-03-03T11:46:00.025Z,52.03
2018-03-03T11:48:29.935Z,54.17
2018-03-03T11:50:59.823Z,49.00
2018-03-03T11:53:29.817Z,46.83
2018-03-03T11:55:59.696Z,43.53
2018-03-03T11:58:29.596Z,52.90
2018-03-03T12:00:59.512Z,49.03
2018-03-03T12:03:29.376Z,49.20
2018-03-03T12:05:59.260Z,47.60
2018-03-03T12:08:29.124Z,50.80
2018-03-03T12:10:59.031Z,46.10
2018-03-03T12:13:28.911Z,49.20
2018-03-03T12:15:58.788Z,48.90
2018-03-03T12:18:28.659Z,49.73
2018-03-03T12:20:58.556Z,48.43
2018-03-03T12:23:28.456Z,45.50
2018-03-03T12:25:58.352Z,46.40
2018-03-03T12:28:28.224Z,45.87
2018-03-03T12:30:58.083Z,46.27
2018-03-03T12:33:27.972Z,43.00
2018-03-03T12:35:57.848Z,46.33
2018-03-03T12:38:27.752Z,48.73
2018-03-03T12:40:57.657Z,43.67
2018-03-03T12:43:27.499Z,44.43
2018-03-03T12:45:57.368Z,47.10
2018-03-03T12:48:27.256Z,47.00
2018-03-03T12:50:57.151Z,47.23
2018-03-03T12:53:27.017Z,46.27
2018-03-03T12:55:56.940Z,46.10
2018-03-03T12:58:27.274Z,43.17
2018-03-03T13:00:57.182Z,45.93
2018-03-03T13:03:27.517Z,43.57
2018-03-03T13:05:57.440Z,43.37
2018-03-03T13:08:27.311Z,42.67
2018-03-03T13:10:57.216Z,42.37
2018-03-03T13:13:27.128Z,45.53
2018-03-03T13:15:57.036Z,43.73
2018-03-03T13:18:26.911Z,45.43
2018-03-03T13:20:56.798Z,38.10
2018-03-03T13:23:26.677Z,42.10
2018-03-03T13:25:56.588Z,42.77
2018-03-03T13:28:26.439Z,41.83
2018-03-03T13:30:56.340Z,46.47
2018-03-03T13:33:26.193Z,44.67
2018-03-03T13:35:56.084Z,38.67
2018-03-03T13:38:25.993Z,39.70
2018-03-03T13:40:55.925Z,38.80
2018-03-03T13:43:25.781Z,39.70
2018-03-03T13:45:55.710Z,36.67
2018-03-03T13:48:25.732Z,35.40
2018-03-03T13:50:55.607Z,39.30
2018-03-03T13:53:25.551Z,39.23
2018-03-03T13:55:55.384Z,35.33
2018-03-03T13:58:25.289Z,36.30
2018-03-03T14:00:55.181Z,36.20
2018-03-03T14:03:25.054Z,35.23
2018-03-03T14:05:54.941Z,33.00
2018-03-03T14:08:24.823Z,34.47
2018-03-03T14:10:54.708Z,36.10
2018-03-03T14:13:24.588Z,37.20
2018-03-03T14:15:54.468Z,40.90
2018-03-03T14:18:24.386Z,37.70
2018-03-03T14:20:54.236Z,37.83
2018-03-03T14:23:24.166Z,37.83
2018-03-03T14:25:54.023Z,36.73
2018-03-03T14:28:24.319Z,36.37
2018-03-03T14:30:54.532Z,37.00
2018-03-03T14:33:24.450Z,33.57
2018-03-03T14:35:54.331Z,33.77
2018-03-03T14:38:24.236Z,35.40
2018-03-03T14:40:54.123Z,37.87
2018-03-03T14:43:24.043Z,36.63
2018-03-03T14:45:54.053Z,35.93
2018-03-03T14:48:23.972Z,32.33
2018-03-03T14:50:53.916Z,32.20
2018-03-03T14:53:23.833Z,32.03
2018-03-03T14:55:53.720Z,31.13
2018-03-03T14:58:23.604Z,35.33
2018-03-03T15:00:53.512Z,31.67
2018-03-03T15:03:23.360Z,34.87
2018-03-03T15:05:53.444Z,32.23
2018-03-03T15:08:23.332Z,33.53
2018-03-03T15:10:53.239Z,35.67
2018-03-03T15:13:23.148Z,35.60
2018-03-03T15:15:53.042Z,31.43
2018-03-03T15:18:22.947Z,31.60
2018-03-03T15:20:52.961Z,31.50
2018-03-03T15:23:22.858Z,28.87
2018-03-03T15:25:53.006Z,34.73
2018-03-03T15:28:22.974Z,34.20
2018-03-03T15:30:52.920Z,33.63
2018-03-03T15:33:22.840Z,36.60
2018-03-03T15:35:52.733Z,35.63
2018-03-03T15:38:23.020Z,37.87
2018-03-03T15:40:52.872Z,35.37
2018-03-03T15:43:22.777Z,31.00
2018-03-03T15:45:52.655Z,35.87
2018-03-03T15:48:22.568Z,30.60
2018-03-03T15:50:52.420Z,32.50
2018-03-03T15:53:22.288Z,31.57
2018-03-03T15:55:52.163Z,33.77
2018-03-03T15:58:22.115Z,32.43
2018-03-03T16:00:52.120Z,28.73
2018-03-03T16:03:22.030Z,30.57
2018-03-03T16:05:51.912Z,29.40
2018-03-03T16:08:21.841Z,29.07
2018-03-03T16:10:51.703Z,33.20
2018-03-03T16:13:21.628Z,33.60
2018-03-03T16:15:51.512Z,32.90
2018-03-03T16:18:21.432Z,29.87
2018-03-03T16:20:51.313Z,30.50
2018-03-03T16:23:21.261Z,30.30
2018-03-03T16:25:51.144Z,31.50
2018-03-03T16:28:21.029Z,31.03
2018-03-03T16:30:50.952Z,33.17
2018-03-03T16:33:20.833Z,34.53
2018-03-03T16:35:50.714Z,33.07
2018-03-03T16:38:20.673Z,29.03
2018-03-03T16:40:50.660Z,31.93
2018-03-03T16:43:20.554Z,30.93
2018-03-03T16:45:50.416Z,29.60
2018-03-03T16:48:20.311Z,31.47
2018-03-03T16:50:50.185Z,31.67
2018-03-03T16:53:20.084Z,32.70
2018-03-03T16:55:49.957Z,32.93
2018-03-03T16:58:19.808Z,35.63
2018-03-03T17:00:49.692Z,29.83
2018-03-03T17:03:19.759Z,31.50
2018-03-03T17:05:49.652Z,29.07
2018-03-03T17:08:19.636Z,31.87
2018-03-03T17:10:49.505Z,31.90
2018-03-03T17:13:19.467Z,32.30
2018-03-03T17:15:49.375Z,34.00
2018-03-03T17:18:19.228Z,33.00
2018-03-03T17:20:49.456Z,34.10
2018-03-03T17:23:19.370Z,33.40
2018-03-03T17:25:49.282Z,32.20
2018-03-03T17:28:19.156Z,31.60
2018-03-03T17:30:49.184Z,34.50
2018-03-03T17:33:19.051Z,32.50
2018-03-03T17:35:48.941Z,31.60
2018-03-03T17:38:18.852Z,30.20
2018-03-03T17:40:48.748Z,34.73
2018-03-03T17:43:18.640Z,29.03
2018-03-03T17:45:48.564Z,32.40
2018-03-03T17:48:18.483Z,31.27
2018-03-03T17:50:48.380Z,32.53
2018-03-03T17:53:18.288Z,33.57
2018-03-03T17:55:48.175Z,32.10
2018-03-03T17:58:18.096Z,32.90
2018-03-03T18:00:48.704Z,33.17
2018-03-03T18:03:18.624Z,28.77
2018-03-03T18:05:48.536Z,31.33
2018-03-03T18:08:18.409Z,30.00
2018-03-03T18:10:48.284Z,32.20
2018-03-03T18:13:33.797Z,30.00
2018-03-03T18:16:03.639Z,31.20
2018-03-03T18:18:33.544Z,36.13
2018-03-03T18:21:03.446Z,32.67
2018-03-03T18:23:33.352Z,35.70
2018-03-03T18:26:03.232Z,31.43
2018-03-03T18:28:33.103Z,30.60
2018-03-03T18:31:02.961Z,30.50
2018-03-03T18:33:33.296Z,29.87
2018-03-03T18:36:03.136Z,31.37
2018-03-03T18:38:33.032Z,39.40
2018-03-03T18:41:02.902Z,34.23
2018-03-03T18:43:32.748Z,35.07
2018-03-03T18:46:02.670Z,36.23
2018-03-03T18:48:32.532Z,32.20
2018-03-03T18:51:02.458Z,31.20
2018-03-03T18:53:32.306Z,30.40
2018-03-03T18:56:02.257Z,32.07
2018-03-03T18:58:32.248Z,33.60
2018-03-03T19:01:02.107Z,33.80
2018-03-03T19:03:32.003Z,34.83
2018-03-03T19:06:01.860Z,30.43
2018-03-03T19:08:30.956Z,35.00
2018-03-03T19:10:59.302Z,39.07
2018-03-03T19:13:28.469Z,35.13
2018-03-03T19:15:56.901Z,33.70
2018-03-03T19:18:26.005Z,35.63
2018-03-03T19:20:54.402Z,35.97
2018-03-03T19:23:22.891Z,36.40
2018-03-03T19:25:51.284Z,37.27
2018-03-03T19:28:19.682Z,37.10
2018-03-03T19:30:48.834Z,35.57
2018-03-03T19:33:18.125Z,31.83
2018-03-03T19:35:46.513Z,33.70
2018-03-03T19:38:14.871Z,34.57
2018-03-03T19:40:43.978Z,34.43
2018-03-03T19:43:12.414Z,32.47
2018-03-03T19:45:40.788Z,31.80
2018-03-03T19:48:09.910Z,31.80
2018-03-03T19:50:39.023Z,32.23
2018-03-03T19:53:07.371Z,32.57
2018-03-03T19:55:36.473Z,30.13
2018-03-03T19:58:05.619Z,30.60
2018-03-03T20:00:33.985Z,27.97
2018-03-03T20:03:02.337Z,33.00
2018-03-03T20:05:30.770Z,31.30
2018-03-03T20:07:59.945Z,31.07
2018-03-03T20:10:29.093Z,29.33
2018-03-03T20:12:57.481Z,35.50
2018-03-03T20:15:25.897Z,30.90
2018-03-03T20:17:54.253Z,30.53
2018-03-03T20:20:22.616Z,31.70
2018-03-03T20:22:50.974Z,35.23
2018-03-03T20:25:19.365Z,31.37
2018-03-03T20:27:48.464Z,30.33
2018-03-03T20:30:16.858Z,31.40
2018-03-03T20:32:45.326Z,35.47
2018-03-03T20:35:13.729Z,30.83
2018-03-03T20:37:42.206Z,36.33
2018-03-03T20:40:11.489Z,31.60
2018-03-03T20:42:39.871Z,35.97
2018-03-03T20:45:08.255Z,35.20
2018-03-03T20:47:36.642Z,31.77
2018-03-03T20:50:05.225Z,31.70
2018-03-03T20:52:33.587Z,30.20
2018-03-03T20:55:02.273Z,32.37
2018-03-03T20:57:30.671Z,30.70
2018-03-03T20:59:59.022Z,33.63
2018-03-03T21:02:27.399Z,34.43
2018-03-03T21:04:55.805Z,31.03
2018-03-03T21:07:24.186Z,29.43
2018-03-03T21:09:52.537Z,31.17
2018-03-03T21:12:21.669Z,30.57
2018-03-03T21:14:50.021Z,29.30
2018-03-03T21:17:18.425Z,29.90
2018-03-03T21:19:46.784Z,28.67
2018-03-03T21:22:15.229Z,31.70
2018-03-03T21:24:43.603Z,33.50
2018-03-03T21:27:12.312Z,28.50
2018-03-03T21:29:40.657Z,34.13
2018-03-03T21:32:09.793Z,33.37
2018-03-03T21:34:38.126Z,32.10
2018-03-03T21:37:07.266Z,31.70
2018-03-03T21:39:35.650Z,30.83
2018-03-03T21:42:04.000Z,28.20
2018-03-03T21:44:32.881Z,32.07
2018-03-03T21:47:01.273Z,31.50
2018-03-03T21:49:29.637Z,33.23
2018-03-03T21:51:58.818Z,32.10
2018-03-03T21:54:27.965Z,34.27
2018-03-03T21:56:56.318Z,32.20
2018-03-03T21:59:25.453Z,33.00
2018-03-03T22:01:53.801Z,31.93
2018-03-03T22:04:22.127Z,34.00
2018-03-03T22:06:50.497Z,32.37
2018-03-03T22:09:19.632Z,33.73
2018-03-03T22:11:48.738Z,40.17
2018-03-03T22:14:17.139Z,35.50
2018-03-03T22:16:45.491Z,35.57
2018-03-03T22:19:13.849Z,33.30
2018-03-03T22:21:42.211Z,34.43
2018-03-03T22:24:10.564Z,33.60
2018-03-03T22:26:38.901Z,36.40
2018-03-03T22:29:08.049Z,35.70
2018-03-03T22:36:45.514Z,35.90
2018-03-03T22:39:14.636Z,37.20
2018-03-03T22:41:43.843Z,36.70
2018-03-03T22:44:12.470Z,34.47
2018-03-03T22:46:40.928Z,34.80
2018-03-03T22:49:09.280Z,32.67
2018-03-03T22:51:37.628Z,34.73
2018-03-03T22:54:06.017Z,38.13
2018-03-03T22:56:35.108Z,38.93
2018-03-03T22:59:03.471Z,37.97
2018-03-03T23:01:32.635Z,36.60
2018-03-03T23:04:00.999Z,36.03
2018-03-03T23:06:29.380Z,39.20
2018-03-03T23:08:57.948Z,33.20
2018-03-03T23:11:26.274Z,34.30
2018-03-03T23:13:55.409Z,35.93
2018-03-03T23:16:23.759Z,34.13
2018-03-03T23:18:52.106Z,33.50
2018-03-03T23:21:20.477Z,32.63
2018-03-03T23:23:48.828Z,35.07
2018-03-03T23:26:17.201Z,32.53
2018-03-03T23:28:45.603Z,32.90
2018-03-03T23:31:13.981Z,35.53
2018-03-03T23:33:42.376Z,33.07
2018-03-03T23:36:11.525Z,32.50
2018-03-03T23:38:39.862Z,32.20
2018-03-03T23:41:08.214Z,34.50
2018-03-03T23:43:36.572Z,33.80
2018-03-03T23:46:04.917Z,32.70
2018-03-03T23:48:34.053Z,38.13
2018-03-03T23:51:02.392Z,37.60
2018-03-03T23:53:31.502Z,39.20
2018-03-03T23:55:59.859Z,34.37
2018-03-03T23:58:28.968Z,35.17
